Inicio METAR Ruta Wind Satelite

Informe Meteorológico

Fecha: 2024/06/18 20:34:47 Local
2024.06.19 01:34 UTC


Operación:MVFR
SKUI 190100Z IDEAM NIL =

SKUI 190000Z 20004KT 9999 SCT035 26/24 Q1008
SKUI 182300Z 00000KT 9999 FEW040 27/24 Q1007
SKUI 182200Z 22004KT 9999 FEW035 OVC200 27/24 Q1007
SKUI 182100Z 28006KT 9999 FEW035 29/24 Q1006
SKUI 182000Z 28006KT 9999 SCT030 29/24 Q1007